createdAt,value
2018-08-03T00:01:49.577Z,21.43
2018-08-03T00:04:18.919Z,21.37
2018-08-03T00:06:48.596Z,21.32
2018-08-03T00:09:17.684Z,21.31
2018-08-03T00:11:46.876Z,21.31
2018-08-03T00:14:16.120Z,21.31
2018-08-03T00:16:45.322Z,21.33
2018-08-03T00:19:14.964Z,21.28
2018-08-03T00:21:44.255Z,21.29
2018-08-03T00:24:13.692Z,21.12
2018-08-03T00:26:42.831Z,21.10
2018-08-03T00:29:11.924Z,21.14
2018-08-03T00:31:41.100Z,21.12
2018-08-03T00:34:10.196Z,20.99
2018-08-03T00:36:39.372Z,21.01
2018-08-03T00:39:10.383Z,21.05
2018-08-03T00:41:39.534Z,21.07
2018-08-03T00:44:09.228Z,21.02
2018-08-03T00:46:38.468Z,20.99
2018-08-03T00:49:07.616Z,21.02
2018-08-03T00:51:36.836Z,21.03
2018-08-03T00:54:06.060Z,20.99
2018-08-03T00:56:35.339Z,21.00
2018-08-03T00:59:04.560Z,20.96
2018-08-03T01:01:33.716Z,20.99
2018-08-03T01:04:02.908Z,20.95
2018-08-03T01:06:32.565Z,20.93
2018-08-03T01:09:01.680Z,20.92
2018-08-03T01:11:30.857Z,20.91
2018-08-03T01:14:00.100Z,20.89
2018-08-03T01:16:29.283Z,20.89
2018-08-03T01:18:58.152Z,20.87
2018-08-03T01:21:27.411Z,20.80
2018-08-03T01:23:56.640Z,20.73
2018-08-03T01:26:25.763Z,20.69
2018-08-03T01:28:54.938Z,20.65
2018-08-03T01:31:23.887Z,20.57
2018-08-03T01:33:53.200Z,20.52
2018-08-03T01:36:22.422Z,20.53
2018-08-03T01:38:52.188Z,20.52
2018-08-03T01:41:21.334Z,20.46
2018-08-03T01:43:51.104Z,20.45
2018-08-03T01:46:20.268Z,20.39
2018-08-03T01:48:50.284Z,20.46
2018-08-03T01:51:19.719Z,20.44
2018-08-03T01:53:48.916Z,20.41
2018-08-03T01:56:18.008Z,20.34
2018-08-03T01:58:47.520Z,20.28
2018-08-03T02:01:16.866Z,20.33
2018-08-03T02:03:45.928Z,20.36
2018-08-03T02:06:15.140Z,20.35
2018-08-03T02:08:44.360Z,20.35
2018-08-03T02:11:13.308Z,20.34
2018-08-03T02:13:42.940Z,20.36
2018-08-03T02:16:12.109Z,20.35
2018-08-03T02:18:41.196Z,20.34
2018-08-03T02:21:10.432Z,20.31
2018-08-03T02:23:39.599Z,20.28
2018-08-03T02:26:08.852Z,20.23
2018-08-03T02:28:37.920Z,20.22
2018-08-03T02:31:07.088Z,20.22
2018-08-03T02:33:36.274Z,20.21
2018-08-03T02:36:05.591Z,20.15
2018-08-03T02:38:34.845Z,20.12
2018-08-03T02:41:03.792Z,20.07
2018-08-03T02:43:33.212Z,20.00
2018-08-03T02:46:02.380Z,20.02
2018-08-03T02:48:31.584Z,20.07
2018-08-03T02:51:00.795Z,20.02
2018-08-03T02:53:29.939Z,19.97
2018-08-03T02:55:59.053Z,19.93
2018-08-03T02:58:28.327Z,19.88
2018-08-03T03:00:57.480Z,19.87
2018-08-03T03:03:26.709Z,19.86
2018-08-03T03:05:56.108Z,19.84
2018-08-03T03:08:25.255Z,19.84
2018-08-03T03:10:54.783Z,19.80
2018-08-03T03:13:23.967Z,19.75
2018-08-03T03:15:53.204Z,19.79
2018-08-03T03:18:22.377Z,19.80
2018-08-03T03:20:51.776Z,19.81
2018-08-03T03:23:20.951Z,19.78
2018-08-03T03:25:50.048Z,19.78
2018-08-03T03:28:19.588Z,19.75
2018-08-03T03:30:48.756Z,19.74
2018-08-03T03:33:17.848Z,19.68
2018-08-03T03:35:47.993Z,19.69
2018-08-03T03:38:17.189Z,19.68
2018-08-03T03:40:46.400Z,19.64
2018-08-03T03:43:15.600Z,19.62
2018-08-03T03:45:44.776Z,19.60
2018-08-03T03:48:13.984Z,19.59
2018-08-03T03:50:43.514Z,19.61
2018-08-03T03:53:12.884Z,19.58
2018-08-03T03:55:41.991Z,19.61
2018-08-03T03:58:11.400Z,19.56
2018-08-03T04:00:40.612Z,19.55
2018-08-03T04:03:09.668Z,19.53
2018-08-03T04:05:38.876Z,19.44
2018-08-03T04:08:08.067Z,19.47
2018-08-03T04:10:37.289Z,19.44
2018-08-03T04:13:07.225Z,19.40
2018-08-03T04:15:36.192Z,19.41
2018-08-03T04:18:10.512Z,19.56
2018-08-03T04:20:39.592Z,19.60
2018-08-03T04:23:08.792Z,19.57
2018-08-03T04:25:38.235Z,19.58
2018-08-03T04:28:07.664Z,19.62
2018-08-03T04:30:36.884Z,19.61
2018-08-03T04:33:06.416Z,19.62
2018-08-03T04:35:35.618Z,19.62
2018-08-03T04:38:04.824Z,19.69
2018-08-03T04:40:34.120Z,19.76
2018-08-03T04:43:03.107Z,19.89
2018-08-03T04:45:32.276Z,19.96
2018-08-03T04:48:01.492Z,20.05
2018-08-03T04:50:30.588Z,20.05
2018-08-03T04:53:00.058Z,20.07
2018-08-03T04:55:30.213Z,20.15
2018-08-03T04:57:59.423Z,20.24
2018-08-03T05:00:29.448Z,20.30
2018-08-03T05:02:58.331Z,20.35
2018-08-03T05:05:27.445Z,20.44
2018-08-03T05:07:56.611Z,20.55
2018-08-03T05:10:25.712Z,20.68
2018-08-03T05:12:54.984Z,20.76
2018-08-03T05:15:25.148Z,20.90
2018-08-03T05:17:54.243Z,20.98
2018-08-03T05:20:23.444Z,21.02
2018-08-03T05:22:53.260Z,21.20
2018-08-03T05:25:22.768Z,21.29
2018-08-03T05:27:51.872Z,21.21
2018-08-03T05:30:21.073Z,21.22
2018-08-03T05:32:50.424Z,21.26
2018-08-03T05:35:19.692Z,21.37
2018-08-03T05:37:49.268Z,21.40
2018-08-03T05:40:18.356Z,21.57
2018-08-03T05:42:47.774Z,21.65
2018-08-03T05:45:17.231Z,21.91
2018-08-03T05:47:46.460Z,22.23
2018-08-03T05:50:15.817Z,22.39
2018-08-03T05:52:44.872Z,22.72
2018-08-03T05:55:14.139Z,22.88
2018-08-03T05:57:44.251Z,22.98
2018-08-03T06:00:13.544Z,23.05
2018-08-03T06:02:43.396Z,23.21
2018-08-03T06:05:12.573Z,23.24
2018-08-03T06:07:41.808Z,23.62
2018-08-03T06:10:11.092Z,23.77
2018-08-03T06:12:40.288Z,23.87
2018-08-03T06:15:10.439Z,23.90
2018-08-03T06:17:40.315Z,24.03
2018-08-03T06:20:12.296Z,23.79
2018-08-03T06:22:42.180Z,23.43
2018-08-03T06:25:11.978Z,24.08
2018-08-03T06:27:41.218Z,24.39
2018-08-03T06:30:12.021Z,24.78
2018-08-03T06:32:42.132Z,25.03
2018-08-03T06:35:11.272Z,25.21
2018-08-03T06:37:40.872Z,25.36
2018-08-03T06:40:10.960Z,25.58
2018-08-03T06:42:40.147Z,25.70
2018-08-03T06:45:09.376Z,25.84
2018-08-03T06:47:38.556Z,26.04
2018-08-03T06:50:07.696Z,26.18
2018-08-03T06:52:38.482Z,26.29
2018-08-03T06:55:07.573Z,26.63
2018-08-03T06:57:36.847Z,26.99
2018-08-03T07:00:07.600Z,27.07
2018-08-03T07:02:36.807Z,27.07
2018-08-03T07:05:06.020Z,26.71
2018-08-03T07:07:35.936Z,26.82
2018-08-03T07:10:05.328Z,26.61
2018-08-03T07:12:34.540Z,27.28
2018-08-03T07:15:04.053Z,27.86
2018-08-03T07:17:33.232Z,28.04
2018-08-03T07:20:02.556Z,27.35
2018-08-03T07:22:31.624Z,27.33
2018-08-03T07:25:00.841Z,28.67
2018-08-03T07:27:29.915Z,29.56
2018-08-03T07:29:59.628Z,31.33
2018-08-03T07:32:28.857Z,31.52
2018-08-03T07:34:58.632Z,32.48
2018-08-03T07:37:28.184Z,33.01
2018-08-03T07:39:57.291Z,33.97
2018-08-03T07:42:26.436Z,33.15
2018-08-03T07:44:56.727Z,31.84
2018-08-03T07:47:25.852Z,32.18
2018-08-03T07:49:56.128Z,35.27
2018-08-03T07:52:26.122Z,36.03
2018-08-03T07:54:55.180Z,34.32
2018-08-03T07:57:25.310Z,31.75
2018-08-03T07:59:54.500Z,31.47
2018-08-03T08:02:24.468Z,32.49
2018-08-03T08:04:54.309Z,32.99
2018-08-03T08:07:24.396Z,33.46
2018-08-03T08:09:54.368Z,33.60
2018-08-03T08:12:24.205Z,32.78
2018-08-03T08:14:53.406Z,33.78
2018-08-03T08:17:22.579Z,34.36
2018-08-03T08:19:52.109Z,36.87
2018-08-03T08:22:21.008Z,37.38
2018-08-03T08:24:50.083Z,37.80
2018-08-03T08:27:19.475Z,36.86
2018-08-03T08:29:49.664Z,40.39
2018-08-03T08:32:18.844Z,36.08
2018-08-03T08:34:49.137Z,33.99
2018-08-03T08:37:19.225Z,35.30
2018-08-03T08:39:49.784Z,34.30
2018-08-03T08:42:18.784Z,37.84
2018-08-03T08:44:48.058Z,39.57
2018-08-03T08:47:17.480Z,37.11
2018-08-03T08:49:46.654Z,38.43
2018-08-03T08:52:16.797Z,39.15
2018-08-03T08:54:46.830Z,37.53
2018-08-03T08:57:16.735Z,39.81
2018-08-03T08:59:46.116Z,42.10
2018-08-03T09:02:15.281Z,40.20
2018-08-03T09:04:45.104Z,41.56
2018-08-03T09:07:14.300Z,40.89
2018-08-03T09:09:43.505Z,43.26
2018-08-03T09:12:13.331Z,42.52
2018-08-03T09:14:42.529Z,40.73
2018-08-03T09:17:11.696Z,37.04
2018-08-03T09:19:41.969Z,39.66
2018-08-03T09:22:11.174Z,40.15
2018-08-03T09:24:40.274Z,38.16
2018-08-03T09:27:09.216Z,40.78
2018-08-03T09:29:38.441Z,39.87
2018-08-03T09:32:07.764Z,37.19
2018-08-03T09:34:38.108Z,37.32
2018-08-03T09:37:07.556Z,38.94
2018-08-03T09:39:37.444Z,39.66
2018-08-03T09:42:07.105Z,42.46
2018-08-03T09:44:37.517Z,41.61
2018-08-03T09:47:07.633Z,39.19
2018-08-03T09:49:38.330Z,41.11
2018-08-03T09:52:07.651Z,41.87
2018-08-03T09:54:37.217Z,40.16
2018-08-03T09:57:07.654Z,40.32
2018-08-03T09:59:37.261Z,42.32
2018-08-03T10:02:07.295Z,42.69
2018-08-03T10:04:37.080Z,41.32
2018-08-03T10:07:06.220Z,39.65
2018-08-03T10:09:37.049Z,41.29
2018-08-03T10:12:07.310Z,41.18
2018-08-03T10:14:37.063Z,40.00
2018-08-03T10:17:06.292Z,41.20
2018-08-03T10:19:36.336Z,39.34
2018-08-03T10:22:05.636Z,39.60
2018-08-03T10:24:35.880Z,40.92
2018-08-03T10:27:05.129Z,39.21
2018-08-03T10:29:34.944Z,37.44
2018-08-03T10:32:04.146Z,36.66
2018-08-03T10:34:33.635Z,37.25
2018-08-03T10:37:02.946Z,37.01
2018-08-03T10:39:32.152Z,36.67
2018-08-03T10:42:01.449Z,39.27
2018-08-03T10:44:30.620Z,41.53
2018-08-03T10:46:59.796Z,40.82
2018-08-03T10:49:29.063Z,37.76
2018-08-03T10:51:57.899Z,37.51
2018-08-03T10:54:27.004Z,37.75
2018-08-03T10:56:56.324Z,38.99
2018-08-03T10:59:25.750Z,41.51
2018-08-03T11:01:55.112Z,42.32
2018-08-03T11:04:25.072Z,38.71
2018-08-03T11:06:54.420Z,38.48
2018-08-03T11:09:23.576Z,38.45
2018-08-03T11:11:53.052Z,40.51
2018-08-03T11:14:22.144Z,39.08
2018-08-03T11:16:51.340Z,39.98
2018-08-03T11:19:21.499Z,40.57
2018-08-03T11:21:50.451Z,38.73
2018-08-03T11:24:19.723Z,39.60
2018-08-03T11:26:49.185Z,38.93
2018-08-03T11:29:18.392Z,39.56
2018-08-03T11:31:47.378Z,39.85
2018-08-03T11:34:16.886Z,39.52
2018-08-03T11:36:46.042Z,39.47
2018-08-03T11:39:15.136Z,38.65
2018-08-03T11:41:44.695Z,39.22
2018-08-03T11:44:14.128Z,39.54
2018-08-03T11:46:43.253Z,40.86
2018-08-03T11:49:12.493Z,41.36
2018-08-03T11:51:41.664Z,42.04
2018-08-03T11:54:10.974Z,38.25
2018-08-03T11:56:40.686Z,36.35
2018-08-03T11:59:09.857Z,37.74
2018-08-03T12:01:39.813Z,38.57
2018-08-03T12:04:08.909Z,39.24
2018-08-03T12:06:38.235Z,38.92
2018-08-03T12:09:09.192Z,39.66
2018-08-03T12:11:38.319Z,38.79
2018-08-03T12:14:07.425Z,38.88
2018-08-03T12:16:37.024Z,37.55
2018-08-03T12:19:06.280Z,39.24
2018-08-03T12:21:36.528Z,38.06
2018-08-03T12:24:07.083Z,37.06
2018-08-03T12:26:36.302Z,37.13
2018-08-03T12:29:05.476Z,36.69
2018-08-03T12:31:35.650Z,38.08
2018-08-03T12:34:04.748Z,39.85
2018-08-03T12:36:34.636Z,39.17
2018-08-03T12:39:04.516Z,39.71
2018-08-03T12:41:34.632Z,40.00
2018-08-03T12:44:04.434Z,39.32
2018-08-03T12:46:34.392Z,39.62
2018-08-03T12:49:03.896Z,40.22
2018-08-03T12:51:34.857Z,40.44
2018-08-03T12:54:04.072Z,41.29
2018-08-03T12:56:33.452Z,42.36
2018-08-03T12:59:02.820Z,44.04
2018-08-03T13:01:32.005Z,44.15
2018-08-03T13:04:01.544Z,39.56
2018-08-03T13:06:30.659Z,40.08
2018-08-03T13:09:00.181Z,39.13
2018-08-03T13:11:29.380Z,39.72
2018-08-03T13:13:58.600Z,37.64
2018-08-03T13:16:27.712Z,38.58
2018-08-03T13:18:56.768Z,40.22
2018-08-03T13:21:37.776Z,39.37
2018-08-03T13:24:07.145Z,39.17
2018-08-03T13:26:36.472Z,41.06
2018-08-03T13:29:05.847Z,41.72
2018-08-03T13:31:35.798Z,43.13
2018-08-03T13:34:05.033Z,40.92
2018-08-03T13:36:35.388Z,39.62
2018-08-03T13:39:08.119Z,39.74
2018-08-03T13:41:37.981Z,40.61
2018-08-03T13:44:07.180Z,41.01
2018-08-03T13:46:36.515Z,40.77
2018-08-03T13:49:05.763Z,42.30
2018-08-03T13:51:35.626Z,42.76
2018-08-03T13:54:04.933Z,44.01
2018-08-03T13:56:35.245Z,41.75
2018-08-03T13:59:04.661Z,42.73
2018-08-03T14:01:44.817Z,42.61
2018-08-03T14:04:14.227Z,43.19
2018-08-03T14:06:43.416Z,43.81
2018-08-03T14:09:13.012Z,44.04
2018-08-03T14:11:42.181Z,42.21
2018-08-03T14:14:11.408Z,43.07
2018-08-03T14:16:41.020Z,42.68
2018-08-03T14:19:10.129Z,42.61
2018-08-03T14:21:39.517Z,42.75
2018-08-03T14:24:08.683Z,40.72
2018-08-03T14:26:37.921Z,40.29
2018-08-03T14:29:08.149Z,39.44
2018-08-03T14:31:37.509Z,40.02
2018-08-03T14:34:06.765Z,42.10
2018-08-03T14:36:37.484Z,41.24
2018-08-03T14:39:09.824Z,41.09
2018-08-03T14:41:39.517Z,41.22
2018-08-03T14:44:09.444Z,38.64
2018-08-03T14:46:40.009Z,39.22
2018-08-03T14:49:09.279Z,40.48
2018-08-03T14:51:38.904Z,41.00
2018-08-03T14:54:08.404Z,41.47
2018-08-03T14:56:38.049Z,41.28
2018-08-03T14:59:08.252Z,42.35
2018-08-03T15:01:37.856Z,40.83
2018-08-03T15:04:07.068Z,41.06
2018-08-03T15:06:37.196Z,39.83
2018-08-03T15:09:09.652Z,39.95
2018-08-03T15:11:39.127Z,39.17
2018-08-03T15:14:08.349Z,40.15
2018-08-03T15:16:38.752Z,39.45
2018-08-03T15:19:08.388Z,37.72
2018-08-03T15:21:37.496Z,37.64
2018-08-03T15:24:06.786Z,37.53
2018-08-03T15:26:36.613Z,37.71
2018-08-03T15:29:05.801Z,38.20
2018-08-03T15:31:37.424Z,37.40
2018-08-03T15:34:07.131Z,36.91
2018-08-03T15:36:37.446Z,36.73
2018-08-03T15:39:10.020Z,36.26
2018-08-03T15:41:39.720Z,36.38
2018-08-03T15:44:09.480Z,36.30
2018-08-03T15:46:38.776Z,36.42
2018-08-03T15:49:07.567Z,36.43
2018-08-03T15:51:37.230Z,36.80
2018-08-03T15:54:06.588Z,36.91
2018-08-03T15:56:36.596Z,36.84
2018-08-03T15:59:05.581Z,36.85
2018-08-03T16:01:36.080Z,35.41
2018-08-03T16:04:05.270Z,35.76
2018-08-03T16:06:35.599Z,35.82
2018-08-03T16:09:07.920Z,35.44
2018-08-03T16:11:39.160Z,35.53
2018-08-03T16:14:08.610Z,35.73
2018-08-03T16:16:38.736Z,35.62
2018-08-03T16:19:07.977Z,36.10
2018-08-03T16:21:37.770Z,36.05
2018-08-03T16:24:06.751Z,36.21
2018-08-03T16:26:36.664Z,35.82
2018-08-03T16:29:05.849Z,34.95
2018-08-03T16:31:37.304Z,35.01
2018-08-03T16:34:06.616Z,34.93
2018-08-03T16:36:37.144Z,35.38
2018-08-03T16:39:09.821Z,35.54
2018-08-03T16:41:39.360Z,35.06
2018-08-03T16:44:08.323Z,34.97
2018-08-03T16:46:38.721Z,34.60
2018-08-03T16:49:07.868Z,34.61
2018-08-03T16:51:37.237Z,34.51
2018-08-03T16:54:06.468Z,34.62
2018-08-03T16:56:36.950Z,34.75
2018-08-03T16:59:06.196Z,34.74
2018-08-03T17:01:36.980Z,35.03
2018-08-03T17:04:06.149Z,34.94
2018-08-03T17:06:36.093Z,34.62
2018-08-03T17:09:09.848Z,34.63
2018-08-03T17:11:39.035Z,34.57
2018-08-03T17:14:08.187Z,34.59
2018-08-03T17:16:37.719Z,34.72
2018-08-03T17:19:07.676Z,34.73
2018-08-03T17:21:38.705Z,34.69
2018-08-03T17:24:07.889Z,34.26
2018-08-03T17:26:37.705Z,34.08
2018-08-03T17:29:07.220Z,34.14
2018-08-03T17:31:37.544Z,34.04
2018-08-03T17:34:06.741Z,34.11
2018-08-03T17:36:36.873Z,34.01
2018-08-03T17:39:09.307Z,33.88
2018-08-03T17:41:38.552Z,33.61
2018-08-03T17:44:07.608Z,33.36
2018-08-03T17:46:37.868Z,33.17
2018-08-03T17:49:07.329Z,33.38
2018-08-03T17:51:37.120Z,33.34
2018-08-03T17:54:06.545Z,33.22
2018-08-03T17:56:37.120Z,33.05
2018-08-03T17:59:06.296Z,32.89
2018-08-03T18:01:36.437Z,32.80
2018-08-03T18:04:06.151Z,32.68
2018-08-03T18:06:35.863Z,32.45
2018-08-03T18:09:06.521Z,32.27
2018-08-03T18:11:36.960Z,32.14
2018-08-03T18:14:06.174Z,31.98
2018-08-03T18:16:36.769Z,31.53
2018-08-03T18:19:06.332Z,31.38
2018-08-03T18:21:36.296Z,31.16
2018-08-03T18:24:05.536Z,30.94
2018-08-03T18:26:35.887Z,30.75
2018-08-03T18:29:05.328Z,30.61
2018-08-03T18:31:35.093Z,30.50
2018-08-03T18:34:04.785Z,30.33
2018-08-03T18:36:34.413Z,30.27
2018-08-03T18:39:04.609Z,30.28
2018-08-03T18:41:34.374Z,30.14
2018-08-03T18:44:03.548Z,30.06
2018-08-03T18:46:32.784Z,29.91
2018-08-03T18:49:02.035Z,29.82
2018-08-03T18:51:30.864Z,29.74
2018-08-03T18:53:59.913Z,29.63
2018-08-03T18:56:29.412Z,29.48
2018-08-03T18:58:58.535Z,29.30
2018-08-03T19:01:27.967Z,29.18
2018-08-03T19:03:57.384Z,29.05
2018-08-03T19:06:26.696Z,28.92
2018-08-03T19:08:55.868Z,28.80
2018-08-03T19:11:25.329Z,28.64
2018-08-03T19:13:54.572Z,28.57
2018-08-03T19:16:23.788Z,28.47
2018-08-03T19:18:52.916Z,28.41
2018-08-03T19:21:22.064Z,28.31
2018-08-03T19:23:51.160Z,28.22
2018-08-03T19:26:20.819Z,27.90
2018-08-03T19:28:49.988Z,27.63
2018-08-03T19:31:19.073Z,27.52
2018-08-03T19:33:48.163Z,27.54
2018-08-03T19:36:17.347Z,27.41
2018-08-03T19:38:46.560Z,27.33
2018-08-03T19:41:16.416Z,27.24
2018-08-03T19:43:45.480Z,27.15
2018-08-03T19:46:14.630Z,27.15
2018-08-03T19:48:44.084Z,26.99
2018-08-03T19:51:13.372Z,26.90
2018-08-03T19:53:42.592Z,26.79
2018-08-03T19:56:12.116Z,26.68
2018-08-03T19:58:41.188Z,26.61
2018-08-03T20:01:10.252Z,26.55
2018-08-03T20:03:39.808Z,26.53
2018-08-03T20:06:08.892Z,26.57
2018-08-03T20:08:38.297Z,26.43
2018-08-03T20:11:07.464Z,26.39
2018-08-03T20:13:37.629Z,26.26
2018-08-03T20:16:07.084Z,26.14
2018-08-03T20:18:37.665Z,26.12
2018-08-03T20:21:06.519Z,26.14
2018-08-03T20:23:36.780Z,26.13
2018-08-03T20:26:06.851Z,26.09
2018-08-03T20:28:36.677Z,26.04
2018-08-03T20:31:05.844Z,26.00
2018-08-03T20:33:35.768Z,25.90
2018-08-03T20:36:05.021Z,25.81
2018-08-03T20:38:35.224Z,25.79
2018-08-03T20:41:04.833Z,25.78
2018-08-03T20:43:34.808Z,25.72
2018-08-03T20:46:04.011Z,25.64
2018-08-03T20:48:33.945Z,25.54
2018-08-03T20:51:03.179Z,25.45
2018-08-03T20:53:32.243Z,25.42
2018-08-03T20:56:01.733Z,25.41
2018-08-03T20:58:30.967Z,25.38
2018-08-03T21:01:00.260Z,25.27
2018-08-03T21:03:29.639Z,25.18
2018-08-03T21:05:58.844Z,25.12
2018-08-03T21:08:28.044Z,25.09
2018-08-03T21:10:57.368Z,25.04
2018-08-03T21:13:26.947Z,24.97
2018-08-03T21:15:56.144Z,24.93
2018-08-03T21:18:25.372Z,24.90
2018-08-03T21:20:54.493Z,24.85
2018-08-03T21:23:23.636Z,24.83
2018-08-03T21:25:52.944Z,24.80
2018-08-03T21:28:22.823Z,24.72
2018-08-03T21:30:52.020Z,24.73
2018-08-03T21:33:21.471Z,24.66
2018-08-03T21:35:50.535Z,24.65
2018-08-03T21:38:19.790Z,24.60
2018-08-03T21:40:49.197Z,24.49
2018-08-03T21:43:18.225Z,24.42
2018-08-03T21:45:48.511Z,24.33
2018-08-03T21:48:17.583Z,24.28
2018-08-03T21:50:46.789Z,24.24
2018-08-03T21:53:15.832Z,24.16
2018-08-03T21:55:46.288Z,24.15
2018-08-03T21:58:15.480Z,24.15
2018-08-03T22:00:46.017Z,24.12
2018-08-03T22:03:15.412Z,24.03
2018-08-03T22:05:45.251Z,23.95
2018-08-03T22:08:14.140Z,23.98
2018-08-03T22:10:45.521Z,23.92
2018-08-03T22:13:14.637Z,23.87
2018-08-03T22:15:44.135Z,23.84
2018-08-03T22:18:14.304Z,23.82
2018-08-03T22:20:43.780Z,23.79
2018-08-03T22:23:12.997Z,23.72
2018-08-03T22:25:43.920Z,23.70
2018-08-03T22:28:13.108Z,23.62
2018-08-03T22:30:43.672Z,23.58
2018-08-03T22:33:12.877Z,23.52
2018-08-03T22:35:44.009Z,23.46
2018-08-03T22:38:13.312Z,23.47
2018-08-03T22:40:43.231Z,23.49
2018-08-03T22:43:12.400Z,23.40
2018-08-03T22:45:44.016Z,23.43
2018-08-03T22:48:13.162Z,23.43
2018-08-03T22:50:43.466Z,23.25
2018-08-03T22:53:12.992Z,23.10
2018-08-03T22:55:43.128Z,23.05
2018-08-03T22:58:12.280Z,22.98
2018-08-03T23:00:42.224Z,22.96
2018-08-03T23:03:11.831Z,22.94
2018-08-03T23:05:41.372Z,22.98
2018-08-03T23:08:11.042Z,22.99
2018-08-03T23:10:42.285Z,22.98
2018-08-03T23:13:12.303Z,22.93
2018-08-03T23:15:42.422Z,22.86
2018-08-03T23:18:11.648Z,22.84
2018-08-03T23:20:43.106Z,22.78
2018-08-03T23:23:12.400Z,22.61
2018-08-03T23:25:44.419Z,22.54
2018-08-03T23:28:13.748Z,22.44
2018-08-03T23:30:45.732Z,22.42
2018-08-03T23:33:14.992Z,22.36
2018-08-03T23:35:46.072Z,22.35
2018-08-03T23:38:15.279Z,22.46
2018-08-03T23:40:45.292Z,22.44
2018-08-03T23:43:14.672Z,22.47
2018-08-03T23:45:46.105Z,22.49
2018-08-03T23:48:16.356Z,22.44
2018-08-03T23:50:46.160Z,22.38
2018-08-03T23:53:15.355Z,22.43
2018-08-03T23:55:46.024Z,22.25
2018-08-03T23:58:15.297Z,22.13
